createdAt,value
2016-03-14T00:00:48.729Z,1018.6
2016-03-14T00:01:48.748Z,1018.6
2016-03-14T00:02:48.751Z,1018.59
2016-03-14T00:03:48.769Z,1018.63
2016-03-14T00:04:48.772Z,1018.59
2016-03-14T00:05:48.790Z,1018.55
2016-03-14T00:06:48.808Z,1018.59
2016-03-14T00:07:48.811Z,1018.59
2016-03-14T00:08:48.830Z,1018.59
2016-03-14T00:09:48.833Z,1018.52
2016-03-14T00:10:48.850Z,1018.53
2016-03-14T00:11:48.869Z,1018.53
2016-03-14T00:12:48.872Z,1018.53
2016-03-14T00:13:48.889Z,1018.5
2016-03-14T00:14:48.908Z,1018.48
2016-03-14T00:15:48.911Z,1018.44
2016-03-14T00:16:48.929Z,1018.53
2016-03-14T00:17:48.933Z,1018.53
2016-03-14T00:18:48.950Z,1018.49
2016-03-14T00:19:48.969Z,1018.48
2016-03-14T00:20:48.971Z,1018.45
2016-03-14T00:21:48.974Z,1018.45
2016-03-14T00:22:48.992Z,1018.48
2016-03-14T00:23:49.010Z,1018.48
2016-03-14T00:24:49.013Z,1018.44
2016-03-14T00:25:49.031Z,1018.46
2016-03-14T00:26:49.049Z,1018.43
2016-03-14T00:27:49.052Z,1018.41
2016-03-14T00:28:49.071Z,1018.46
2016-03-14T00:29:49.089Z,1018.41
2016-03-14T00:30:49.092Z,1018.42
2016-03-14T00:31:49.110Z,1018.44
2016-03-14T00:32:49.128Z,1018.42
2016-03-14T00:33:49.131Z,1018.44
2016-03-14T00:34:49.134Z,1018.47
2016-03-14T00:35:49.152Z,1018.41
2016-03-14T00:36:49.171Z,1018.4
2016-03-14T00:37:49.173Z,1018.45
2016-03-14T00:38:49.192Z,1018.43
2016-03-14T00:39:49.209Z,1018.39
2016-03-14T00:40:49.212Z,1018.36
2016-03-14T00:41:49.214Z,1018.38
2016-03-14T00:42:49.233Z,1018.35
2016-03-14T00:43:49.252Z,1018.27
2016-03-14T00:44:49.255Z,1018.23
2016-03-14T00:45:49.272Z,1018.25
2016-03-14T00:46:49.291Z,1018.24
2016-03-14T00:47:49.294Z,1018.24
2016-03-14T00:48:49.312Z,1018.27
2016-03-14T00:49:49.315Z,1018.25
2016-03-14T00:50:49.333Z,1018.22
2016-03-14T00:51:49.335Z,1018.3
2016-03-14T00:52:49.354Z,1018.25
2016-03-14T00:53:49.372Z,1018.23
2016-03-14T00:54:49.390Z,1018.27
2016-03-14T00:55:49.393Z,1018.22
2016-03-14T00:56:49.396Z,1018.22
2016-03-14T00:57:49.415Z,1018.19
2016-03-14T00:58:49.458Z,1018.19
2016-03-14T00:59:49.436Z,1018.13
2016-03-14T01:00:49.470Z,1018.13
2016-03-14T01:01:49.497Z,1018.13
2016-03-14T01:02:49.469Z,1018.08
2016-03-14T01:03:49.487Z,1018.08
2016-03-14T01:04:49.489Z,1018.09
2016-03-14T01:05:49.508Z,1018.13
2016-03-14T01:06:49.542Z,1018.09
2016-03-14T01:07:49.529Z,1018.1
2016-03-14T01:08:49.548Z,1018.09
2016-03-14T01:09:49.550Z,1018.04
2016-03-14T01:10:49.569Z,1018.06
2016-03-14T01:11:49.586Z,1018.04
2016-03-14T01:12:49.589Z,1018.08
2016-03-14T01:13:49.592Z,1018.06
2016-03-14T01:14:49.610Z,1018.03
2016-03-14T01:15:49.629Z,1018.04
2016-03-14T01:16:49.631Z,1018.03
2016-03-14T01:17:49.649Z,1018
2016-03-14T01:18:49.685Z,1017.94
2016-03-14T01:19:49.671Z,1017.97
2016-03-14T01:20:49.689Z,1018
2016-03-14T01:21:49.692Z,1018
2016-03-14T01:22:49.710Z,1017.98
2016-03-14T01:23:49.728Z,1017.99
2016-03-14T01:24:49.731Z,1018.02
2016-03-14T01:25:49.734Z,1018.07
2016-03-14T01:26:49.751Z,1018.03
2016-03-14T01:27:49.770Z,1018.04
2016-03-14T01:28:49.773Z,1017.97
2016-03-14T01:29:49.792Z,1017.98
2016-03-14T01:30:49.795Z,1017.99
2016-03-14T01:31:49.812Z,1017.99
2016-03-14T01:32:49.831Z,1017.95
2016-03-14T01:33:49.833Z,1017.92
2016-03-14T01:34:49.852Z,1017.96
2016-03-14T01:35:49.855Z,1017.95
2016-03-14T01:36:49.872Z,1017.94
2016-03-14T01:37:49.875Z,1017.92
2016-03-14T01:38:49.894Z,1017.94
2016-03-14T01:39:49.897Z,1017.89
2016-03-14T01:40:49.914Z,1017.88
2016-03-14T01:41:49.933Z,1017.89
2016-03-14T01:42:49.936Z,1017.88
2016-03-14T01:43:49.954Z,1017.88
2016-03-14T01:44:49.957Z,1017.84
2016-03-14T01:45:49.975Z,1017.92
2016-03-14T01:46:49.977Z,1017.88
2016-03-14T01:47:49.996Z,1017.86
2016-03-14T01:48:50.015Z,1017.89
2016-03-14T01:49:50.017Z,1017.86
2016-03-14T01:50:50.035Z,1017.85
2016-03-14T01:51:50.054Z,1017.84
2016-03-14T01:52:50.056Z,1017.83
2016-03-14T01:53:50.074Z,1017.83
2016-03-14T01:54:50.076Z,1017.86
2016-03-14T01:55:50.096Z,1017.88
2016-03-14T01:56:50.098Z,1017.86
2016-03-14T01:57:50.117Z,1017.9
2016-03-14T01:58:50.120Z,1017.91
2016-03-14T01:59:50.137Z,1017.93
2016-03-14T02:00:50.140Z,1017.88
2016-03-14T02:01:50.159Z,1017.86
2016-03-14T02:02:50.161Z,1017.93
2016-03-14T02:03:50.180Z,1017.91
2016-03-14T02:04:50.183Z,1017.88
2016-03-14T02:05:50.201Z,1017.93
2016-03-14T02:06:50.203Z,1017.9
2016-03-14T02:07:50.222Z,1017.9
2016-03-14T02:08:50.240Z,1017.88
2016-03-14T02:09:50.305Z,1017.9
2016-03-14T02:10:50.261Z,1017.96
2016-03-14T02:11:50.280Z,1017.91
2016-03-14T02:12:50.282Z,1017.97
2016-03-14T02:13:50.300Z,1017.92
2016-03-14T02:14:50.303Z,1017.86
2016-03-14T02:15:50.321Z,1017.88
2016-03-14T02:16:50.324Z,1017.87
2016-03-14T02:17:50.343Z,1017.87
2016-03-14T02:18:50.345Z,1017.89
2016-03-14T02:19:50.363Z,1017.83
2016-03-14T02:20:50.382Z,1017.84
2016-03-14T02:21:50.384Z,1017.81
2016-03-14T02:22:50.402Z,1017.8
2016-03-14T02:23:50.404Z,1017.76
2016-03-14T02:24:50.424Z,1017.78
2016-03-14T02:25:50.426Z,1017.8
2016-03-14T02:26:50.445Z,1017.83
2016-03-14T02:27:50.448Z,1017.8
2016-03-14T02:28:50.465Z,1017.82
2016-03-14T02:29:50.500Z,1017.75
2016-03-14T02:30:50.503Z,1017.76
2016-03-14T02:31:50.489Z,1017.76
2016-03-14T02:32:50.523Z,1017.74
2016-03-14T02:33:50.525Z,1017.76
2016-03-14T02:34:50.529Z,1017.72
2016-03-14T02:35:50.547Z,1017.74
2016-03-14T02:36:50.550Z,1017.71
2016-03-14T02:37:50.568Z,1017.67
2016-03-14T02:38:50.570Z,1017.7
2016-03-14T02:39:50.589Z,1017.6
2016-03-14T02:40:50.608Z,1017.66
2016-03-14T02:41:50.610Z,1017.61
2016-03-14T02:42:50.627Z,1017.7
2016-03-14T02:43:50.631Z,1017.65
2016-03-14T02:44:50.649Z,1017.58
2016-03-14T02:45:50.668Z,1017.6
2016-03-14T02:46:50.671Z,1017.61
2016-03-14T02:47:50.688Z,1017.53
2016-03-14T02:48:50.683Z,1017.59
2016-03-14T02:49:50.690Z,1017.57
2016-03-14T02:50:50.679Z,1017.51
2016-03-14T02:51:50.684Z,1017.52
2016-03-14T02:52:50.675Z,1017.47
2016-03-14T02:53:50.685Z,1017.44
2016-03-14T02:54:50.715Z,1017.52
2016-03-14T02:55:50.697Z,1017.5
2016-03-14T02:56:50.696Z,1017.51
2016-03-14T02:57:50.709Z,1017.5
2016-03-14T02:58:50.724Z,1017.53
2016-03-14T02:59:50.725Z,1017.45
2016-03-14T03:00:50.743Z,1017.53
2016-03-14T03:01:50.759Z,1017.57
2016-03-14T03:02:50.760Z,1017.59
2016-03-14T03:03:50.762Z,1017.67
2016-03-14T03:04:50.780Z,1017.65
2016-03-14T03:05:50.781Z,1017.64
2016-03-14T03:06:50.798Z,1017.68
2016-03-14T03:07:50.801Z,1017.65
2016-03-14T03:08:50.819Z,1017.68
2016-03-14T03:09:50.838Z,1017.68
2016-03-14T03:10:50.855Z,1017.72
2016-03-14T03:11:50.858Z,1017.73
2016-03-14T03:12:50.860Z,1017.72
2016-03-14T03:13:50.880Z,1017.73
2016-03-14T03:14:50.882Z,1017.71
2016-03-14T03:15:50.901Z,1017.72
2016-03-14T03:16:50.903Z,1017.7
2016-03-14T03:17:50.969Z,1017.71
2016-03-14T03:18:50.987Z,1017.69
2016-03-14T03:19:50.990Z,1017.66
2016-03-14T03:20:50.976Z,1017.68
2016-03-14T03:21:50.963Z,1017.66
2016-03-14T03:22:50.981Z,1017.73
2016-03-14T03:23:50.984Z,1017.72
2016-03-14T03:24:51.003Z,1017.68
2016-03-14T03:25:51.006Z,1017.71
2016-03-14T03:26:51.023Z,1017.73
2016-03-14T03:27:51.026Z,1017.7
2016-03-14T03:28:51.044Z,1017.81
2016-03-14T03:29:51.047Z,1017.78
2016-03-14T03:30:51.066Z,1017.77
2016-03-14T03:31:51.069Z,1017.78
2016-03-14T03:32:51.087Z,1017.73
2016-03-14T03:33:51.105Z,1017.77
2016-03-14T03:34:51.123Z,1017.76
2016-03-14T03:35:51.126Z,1017.76
2016-03-14T03:36:51.145Z,1017.76
2016-03-14T03:37:51.147Z,1017.76
2016-03-14T03:38:51.166Z,1017.72
2016-03-14T03:39:51.168Z,1017.7
2016-03-14T03:40:51.171Z,1017.66
2016-03-14T03:41:51.189Z,1017.7
2016-03-14T03:42:51.192Z,1017.7
2016-03-14T03:43:51.226Z,1017.71
2016-03-14T03:44:51.229Z,1017.77
2016-03-14T03:45:51.246Z,1017.76
2016-03-14T03:46:51.249Z,1017.79
2016-03-14T03:47:51.251Z,1017.81
2016-03-14T03:48:51.271Z,1017.81
2016-03-14T03:49:51.273Z,1017.81
2016-03-14T03:50:51.291Z,1017.77
2016-03-14T03:51:51.293Z,1017.79
2016-03-14T03:52:51.313Z,1017.78
2016-03-14T03:53:51.331Z,1017.8
2016-03-14T03:54:51.334Z,1017.78
2016-03-14T03:55:51.351Z,1017.84
2016-03-14T03:56:51.354Z,1017.81
2016-03-14T03:57:51.356Z,1017.86
2016-03-14T03:58:51.375Z,1017.85
2016-03-14T03:59:51.378Z,1017.83
2016-03-14T04:00:51.397Z,1017.87
2016-03-14T04:01:51.414Z,1017.85
2016-03-14T04:02:51.417Z,1017.86
2016-03-14T04:03:51.435Z,1017.83
2016-03-14T04:04:51.438Z,1017.84
2016-03-14T04:05:51.456Z,1017.81
2016-03-14T04:06:51.459Z,1017.86
2016-03-14T04:07:51.477Z,1017.84
2016-03-14T04:08:51.480Z,1017.84
2016-03-14T04:09:51.499Z,1017.8
2016-03-14T04:10:51.502Z,1017.77
2016-03-14T04:11:51.520Z,1017.79
2016-03-14T04:12:51.538Z,1017.77
2016-03-14T04:13:51.540Z,1017.76
2016-03-14T04:14:51.559Z,1017.72
2016-03-14T04:15:51.562Z,1017.74
2016-03-14T04:16:51.580Z,1017.69
2016-03-14T04:17:51.583Z,1017.68
2016-03-14T04:18:51.602Z,1017.68
2016-03-14T04:19:51.603Z,1017.66
2016-03-14T04:20:51.621Z,1017.67
2016-03-14T04:21:51.624Z,1017.71
2016-03-14T04:22:51.643Z,1017.71
2016-03-14T04:23:51.646Z,1017.68
2016-03-14T04:24:51.665Z,1017.68
2016-03-14T04:25:51.667Z,1017.67
2016-03-14T04:26:51.685Z,1017.69
2016-03-14T04:27:51.688Z,1017.67
2016-03-14T04:28:51.707Z,1017.63
2016-03-14T04:29:51.725Z,1017.62
2016-03-14T04:30:51.728Z,1017.57
2016-03-14T04:31:51.745Z,1017.62
2016-03-14T04:32:51.748Z,1017.59
2016-03-14T04:33:51.767Z,1017.62
2016-03-14T04:34:51.770Z,1017.61
2016-03-14T04:35:51.787Z,1017.64
2016-03-14T04:36:51.806Z,1017.64
2016-03-14T04:37:51.808Z,1017.62
2016-03-14T04:38:51.811Z,1017.63
2016-03-14T04:39:51.830Z,1017.65
2016-03-14T04:40:51.833Z,1017.68
2016-03-14T04:41:51.850Z,1017.73
2016-03-14T04:42:51.869Z,1017.74
2016-03-14T04:43:51.871Z,1017.75
2016-03-14T04:44:51.891Z,1017.76
2016-03-14T04:45:51.893Z,1017.76
2016-03-14T04:46:51.896Z,1017.68
2016-03-14T04:47:51.913Z,1017.68
2016-03-14T04:48:51.932Z,1017.68
2016-03-14T04:49:51.949Z,1017.68
2016-03-14T04:50:51.952Z,1017.71
2016-03-14T04:51:51.971Z,1017.68
2016-03-14T04:52:51.974Z,1017.66
2016-03-14T04:53:51.992Z,1017.65
2016-03-14T04:54:51.995Z,1017.65
2016-03-14T04:55:52.013Z,1017.62
2016-03-14T04:56:52.015Z,1017.68
2016-03-14T04:57:52.034Z,1017.67
2016-03-14T04:58:52.037Z,1017.64
2016-03-14T04:59:52.055Z,1017.63
2016-03-14T05:00:52.058Z,1017.64
2016-03-14T05:01:52.092Z,1017.66
2016-03-14T05:02:52.095Z,1017.63
2016-03-14T05:03:52.098Z,1017.64
2016-03-14T05:04:52.100Z,1017.63
2016-03-14T05:05:52.118Z,1017.66
2016-03-14T05:06:52.136Z,1017.65
2016-03-14T05:07:52.139Z,1017.63
2016-03-14T05:08:52.158Z,1017.6
2016-03-14T05:09:52.161Z,1017.64
2016-03-14T05:10:52.163Z,1017.65
2016-03-14T05:11:52.181Z,1017.63
2016-03-14T05:12:52.199Z,1017.63
2016-03-14T05:13:52.202Z,1017.69
2016-03-14T05:14:52.221Z,1017.64
2016-03-14T05:15:52.224Z,1017.68
2016-03-14T05:16:52.241Z,1017.67
2016-03-14T05:17:52.244Z,1017.67
2016-03-14T05:18:52.262Z,1017.68
2016-03-14T05:19:52.266Z,1017.67
2016-03-14T05:20:52.299Z,1017.68
2016-03-14T05:21:52.286Z,1017.65
2016-03-14T05:22:52.304Z,1017.67
2016-03-14T05:23:52.307Z,1017.72
2016-03-14T05:24:52.325Z,1017.66
2016-03-14T05:25:52.328Z,1017.65
2016-03-14T05:26:52.346Z,1017.65
2016-03-14T05:27:52.365Z,1017.64
2016-03-14T05:28:52.367Z,1017.67
2016-03-14T05:29:52.386Z,1017.69
2016-03-14T05:30:52.388Z,1017.71
2016-03-14T05:31:52.406Z,1017.72
2016-03-14T05:32:52.409Z,1017.72
2016-03-14T05:33:52.412Z,1017.67
2016-03-14T05:34:52.430Z,1017.71
2016-03-14T05:35:52.448Z,1017.74
2016-03-14T05:36:52.451Z,1017.77
2016-03-14T05:37:52.470Z,1017.82
2016-03-14T05:38:52.473Z,1017.82
2016-03-14T05:39:52.491Z,1017.82
2016-03-14T05:40:52.494Z,1017.82
2016-03-14T05:41:52.511Z,1017.84
2016-03-14T05:42:52.514Z,1017.84
2016-03-14T05:43:52.533Z,1017.84
2016-03-14T05:44:52.536Z,1017.91
2016-03-14T05:45:52.554Z,1017.87
2016-03-14T05:46:52.557Z,1017.94
2016-03-14T05:47:52.574Z,1017.9
2016-03-14T05:48:52.577Z,1017.92
2016-03-14T05:49:52.596Z,1017.88
2016-03-14T05:50:52.598Z,1017.9
2016-03-14T05:51:52.616Z,1017.9
2016-03-14T05:52:52.619Z,1017.95
2016-03-14T05:53:52.638Z,1017.95
2016-03-14T05:54:52.656Z,1017.92
2016-03-14T05:55:52.659Z,1017.98
2016-03-14T05:56:52.677Z,1017.97
2016-03-14T05:57:52.679Z,1017.97
2016-03-14T05:58:52.682Z,1017.99
2016-03-14T05:59:52.700Z,1017.93
2016-03-14T06:00:52.719Z,1017.92
2016-03-14T06:01:52.737Z,1017.97
2016-03-14T06:02:52.740Z,1018
2016-03-14T06:03:52.742Z,1018
2016-03-14T06:04:52.761Z,1017.99
2016-03-14T06:05:52.763Z,1018
2016-03-14T06:06:52.787Z,1017.97
2016-03-14T06:07:52.790Z,1017.91
2016-03-14T06:08:52.792Z,1017.94
2016-03-14T06:09:52.811Z,1017.94
2016-03-14T06:10:52.829Z,1017.98
2016-03-14T06:11:52.832Z,1017.95
2016-03-14T06:12:52.849Z,1017.99
2016-03-14T06:13:52.853Z,1017.95
2016-03-14T06:14:52.871Z,1017.98
2016-03-14T06:15:52.889Z,1017.97
2016-03-14T06:16:52.891Z,1018
2016-03-14T06:17:52.894Z,1018.03
2016-03-14T06:18:52.912Z,1018.06
2016-03-14T06:19:52.916Z,1018.04
2016-03-14T06:20:52.934Z,1018.06
2016-03-14T06:21:52.937Z,1018.01
2016-03-14T06:22:52.954Z,1018.01
2016-03-14T06:23:52.957Z,1017.9
2016-03-14T06:24:52.976Z,1017.94
2016-03-14T06:25:52.979Z,1018.01
2016-03-14T06:26:52.997Z,1017.97
2016-03-14T06:27:53.015Z,1018.01
2016-03-14T06:28:53.017Z,1018.06
2016-03-14T06:29:53.036Z,1018.07
2016-03-14T06:30:53.039Z,1018.12
2016-03-14T06:31:53.057Z,1018.12
2016-03-14T06:32:53.060Z,1018.14
2016-03-14T06:33:53.078Z,1018.1
2016-03-14T06:34:53.097Z,1018.07
2016-03-14T06:35:53.099Z,1018.12
2016-03-14T06:36:53.117Z,1018.04
2016-03-14T06:37:53.120Z,1018.05
2016-03-14T06:38:53.139Z,1018.1
2016-03-14T06:39:53.141Z,1018.14
2016-03-14T06:40:53.160Z,1018.09
2016-03-14T06:41:53.177Z,1018.11
2016-03-14T06:42:53.181Z,1018.11
2016-03-14T06:43:53.183Z,1018.15
2016-03-14T06:44:53.202Z,1018.15
2016-03-14T06:45:53.204Z,1018.17
2016-03-14T06:46:53.222Z,1018.2
2016-03-14T06:47:53.240Z,1018.21
2016-03-14T06:48:53.243Z,1018.18
2016-03-14T06:49:53.262Z,1018.21
2016-03-14T06:50:53.265Z,1018.16
2016-03-14T06:51:53.282Z,1018.2
2016-03-14T06:52:53.301Z,1018.2
2016-03-14T06:53:53.303Z,1018.21
2016-03-14T06:54:53.306Z,1018.18
2016-03-14T06:55:53.340Z,1018.17
2016-03-14T06:56:53.343Z,1018.17
2016-03-14T06:57:53.345Z,1018.19
2016-03-14T06:58:53.364Z,1018.12
2016-03-14T06:59:53.382Z,1018.14
2016-03-14T07:00:53.385Z,1018.15
2016-03-14T07:01:53.404Z,1018.19
2016-03-14T07:02:53.422Z,1018.15
2016-03-14T07:03:53.425Z,1018.16
2016-03-14T07:04:53.427Z,1018.16
2016-03-14T07:05:53.445Z,1018.17
2016-03-14T07:06:53.464Z,1018.21
2016-03-14T07:07:53.467Z,1018.19
2016-03-14T07:08:53.470Z,1018.21
2016-03-14T07:09:53.488Z,1018.2
2016-03-14T07:10:53.506Z,1018.17
2016-03-14T07:11:53.508Z,1018.17
2016-03-14T07:12:53.527Z,1018.16
2016-03-14T07:13:53.529Z,1018.14
2016-03-14T07:14:53.548Z,1018.14
2016-03-14T07:15:53.566Z,1018.12
2016-03-14T07:16:53.569Z,1018.12
2016-03-14T07:17:53.587Z,1018.11
2016-03-14T07:18:53.591Z,1018.14
2016-03-14T07:19:53.608Z,1018.14
2016-03-14T07:20:53.627Z,1018.09
2016-03-14T07:21:53.629Z,1018.03
2016-03-14T07:22:53.648Z,1018.1
2016-03-14T07:23:53.665Z,1018.08
2016-03-14T07:24:53.669Z,1018.08
2016-03-14T07:25:53.687Z,1018.1
2016-03-14T07:26:53.690Z,1018.12
2016-03-14T07:27:53.707Z,1018.11
2016-03-14T07:28:53.710Z,1018.13
2016-03-14T07:29:53.728Z,1018.13
2016-03-14T07:30:53.747Z,1018.13
2016-03-14T07:31:53.750Z,1018.11
2016-03-14T07:32:53.768Z,1018.09
2016-03-14T07:33:53.771Z,1018.11
2016-03-14T07:34:53.789Z,1018.11
2016-03-14T07:35:53.808Z,1018.14
2016-03-14T07:36:53.811Z,1018.12
2016-03-14T07:37:53.829Z,1018.14
2016-03-14T07:38:53.831Z,1018.12
2016-03-14T07:39:53.849Z,1018.15
2016-03-14T07:40:53.867Z,1018.1
2016-03-14T07:41:53.870Z,1018.07
2016-03-14T07:42:53.889Z,1018.07
2016-03-14T07:43:53.892Z,1018.09
2016-03-14T07:44:53.910Z,1018.12
2016-03-14T07:45:53.928Z,1018.13
2016-03-14T07:46:53.930Z,1018.14
2016-03-14T07:47:53.949Z,1018.16
2016-03-14T07:48:53.968Z,1018.17
2016-03-14T07:49:53.971Z,1018.11
2016-03-14T07:50:53.988Z,1018.13
2016-03-14T07:51:54.007Z,1018.1
2016-03-14T07:52:54.010Z,1018.11
2016-03-14T07:53:54.028Z,1018.13
2016-03-14T07:54:54.030Z,1018.12
2016-03-14T07:55:54.049Z,1018.11
2016-03-14T07:56:54.067Z,1018.1
2016-03-14T07:57:54.085Z,1018.07
2016-03-14T07:58:54.103Z,1018.05
2016-03-14T07:59:54.091Z,1018.03
2016-03-14T08:00:54.109Z,1018.05
2016-03-14T08:01:54.128Z,1018.05
2016-03-14T08:02:54.130Z,1018.1
2016-03-14T08:03:54.148Z,1018.09
2016-03-14T08:04:54.167Z,1018.11
2016-03-14T08:05:54.185Z,1018.07
2016-03-14T08:06:54.184Z,1018.08
2016-03-14T08:07:54.203Z,1018.14
2016-03-14T08:08:54.221Z,1018.09
2016-03-14T08:09:54.225Z,1018.09
2016-03-14T08:10:54.242Z,1018.1
2016-03-14T08:11:54.261Z,1018.12
2016-03-14T08:12:54.263Z,1018.11
2016-03-14T08:13:54.282Z,1018.13
2016-03-14T08:14:54.299Z,1018.07
2016-03-14T08:15:54.302Z,1018.04
2016-03-14T08:16:54.321Z,1018.11
2016-03-14T08:17:54.339Z,1018.11
2016-03-14T08:18:54.341Z,1018.13
2016-03-14T08:19:54.360Z,1018.15
2016-03-14T08:20:54.362Z,1018.14
2016-03-14T08:21:54.381Z,1018.14
2016-03-14T08:22:54.384Z,1018.08
2016-03-14T08:23:54.402Z,1018.16
2016-03-14T08:24:54.420Z,1018.08
2016-03-14T08:25:54.439Z,1018.15
2016-03-14T08:26:54.442Z,1018.13
2016-03-14T08:27:54.460Z,1018.07
2016-03-14T08:28:54.478Z,1018.09
2016-03-14T08:29:54.481Z,1018.1
2016-03-14T08:30:54.498Z,1018.1
2016-03-14T08:31:54.501Z,1018.12
2016-03-14T08:32:54.520Z,1018.14
2016-03-14T08:33:54.539Z,1018.09
2016-03-14T08:34:54.541Z,1018.12
2016-03-14T08:35:54.559Z,1018.16
2016-03-14T08:36:54.578Z,1018.16
2016-03-14T08:37:54.580Z,1018.13
2016-03-14T08:38:54.599Z,1018.14
2016-03-14T08:39:54.617Z,1018.14
2016-03-14T08:40:54.620Z,1018.17
2016-03-14T08:41:54.654Z,1018.16
2016-03-14T08:42:54.656Z,1018.17
2016-03-14T08:43:54.675Z,1018.17
2016-03-14T08:44:54.678Z,1018.17
2016-03-14T08:45:54.696Z,1018.15
2016-03-14T08:46:54.714Z,1018.16
2016-03-14T08:47:54.716Z,1018.14
2016-03-14T08:48:54.735Z,1018.14
2016-03-14T08:49:54.738Z,1018.1
2016-03-14T08:50:54.757Z,1018.05
2016-03-14T08:51:54.774Z,1018.05
2016-03-14T08:52:54.777Z,1018.07
2016-03-14T08:53:54.796Z,1018.01
2016-03-14T08:54:54.813Z,1018
2016-03-14T08:55:54.816Z,1018.01
2016-03-14T08:56:54.835Z,1017.95
2016-03-14T08:57:54.853Z,1017.97
2016-03-14T08:58:54.856Z,1017.99
2016-03-14T08:59:54.890Z,1017.99
2016-03-14T09:00:54.893Z,1018
2016-03-14T09:01:54.895Z,1017.96
2016-03-14T09:02:54.914Z,1017.95
2016-03-14T09:03:54.931Z,1017.99
2016-03-14T09:04:54.950Z,1017.97
2016-03-14T09:05:54.953Z,1017.94
2016-03-14T09:06:54.971Z,1017.93
2016-03-14T09:07:54.973Z,1017.94
2016-03-14T09:08:54.992Z,1017.94
2016-03-14T09:09:55.010Z,1017.86
2016-03-14T09:10:55.028Z,1017.9
2016-03-14T09:11:55.031Z,1017.88
2016-03-14T09:12:55.049Z,1017.92
2016-03-14T09:13:55.052Z,1017.91
2016-03-14T09:14:55.086Z,1017.94
2016-03-14T09:15:55.089Z,1017.96
2016-03-14T09:16:55.107Z,1017.96
2016-03-14T09:17:55.125Z,1017.92
2016-03-14T09:18:55.127Z,1017.95
2016-03-14T09:19:55.147Z,1018.02
2016-03-14T09:20:55.149Z,1017.99
2016-03-14T09:21:55.168Z,1017.95
2016-03-14T09:22:55.185Z,1017.98
2016-03-14T09:23:55.204Z,1017.98
2016-03-14T09:24:55.222Z,1018
2016-03-14T09:25:55.226Z,1018.01
2016-03-14T09:26:55.243Z,1018.02
2016-03-14T09:27:55.246Z,1017.99
2016-03-14T09:28:55.264Z,1017.95
2016-03-14T09:29:55.282Z,1017.97
2016-03-14T09:30:55.285Z,1017.91
2016-03-14T09:31:55.303Z,1017.89
2016-03-14T09:32:55.323Z,1017.9
2016-03-14T09:33:55.325Z,1017.94
2016-03-14T09:34:55.343Z,1017.87
2016-03-14T09:35:55.361Z,1017.9
2016-03-14T09:36:55.380Z,1017.88
2016-03-14T09:37:55.383Z,1017.89
2016-03-14T09:38:55.401Z,1017.88
2016-03-14T09:39:55.419Z,1017.88
2016-03-14T09:40:55.437Z,1017.9
2016-03-14T09:41:55.440Z,1017.91
2016-03-14T09:42:55.459Z,1017.96
2016-03-14T09:43:55.477Z,1017.94
2016-03-14T09:44:55.480Z,1017.96
2016-03-14T09:45:55.498Z,1017.96
2016-03-14T09:46:55.516Z,1017.96
2016-03-14T09:47:55.535Z,1018
2016-03-14T09:48:55.537Z,1018.01
2016-03-14T09:49:55.555Z,1017.99
2016-03-14T09:50:55.574Z,1017.96
2016-03-14T09:51:55.591Z,1018
2016-03-14T09:52:55.595Z,1017.96
2016-03-14T09:53:55.613Z,1017.97
2016-03-14T09:54:55.647Z,1017.93
2016-03-14T09:55:55.649Z,1017.91
2016-03-14T09:56:55.652Z,1017.92
2016-03-14T09:57:55.670Z,1017.91
2016-03-14T09:58:55.689Z,1017.89
2016-03-14T09:59:55.692Z,1017.89
2016-03-14T10:00:55.710Z,1017.92
2016-03-14T10:01:55.729Z,1017.93
2016-03-14T10:02:55.746Z,1017.88
2016-03-14T10:03:55.765Z,1017.86
2016-03-14T10:04:55.768Z,1017.83
2016-03-14T10:05:55.786Z,1017.83
2016-03-14T10:06:55.794Z,1017.85
2016-03-14T10:07:55.816Z,1017.87
2016-03-14T10:08:55.820Z,1017.89
2016-03-14T10:09:55.838Z,1017.79
2016-03-14T10:10:55.856Z,1017.82
2016-03-14T10:11:55.858Z,1017.74
2016-03-14T10:12:55.877Z,1017.77
2016-03-14T10:13:55.896Z,1017.78
2016-03-14T10:14:55.899Z,1017.79
2016-03-14T10:15:55.916Z,1017.79
2016-03-14T10:16:55.935Z,1017.77
2016-03-14T10:17:55.952Z,1017.77
2016-03-14T10:18:55.955Z,1017.71
2016-03-14T10:19:55.974Z,1017.72
2016-03-14T10:20:56.007Z,1017.69
2016-03-14T10:21:56.011Z,1017.72
2016-03-14T10:22:56.029Z,1017.66
2016-03-14T10:23:56.032Z,1017.68
2016-03-14T10:24:56.050Z,1017.69
2016-03-14T10:25:56.068Z,1017.63
2016-03-14T10:26:56.087Z,1017.65
2016-03-14T10:27:56.089Z,1017.63
2016-03-14T10:28:56.108Z,1017.6
2016-03-14T10:29:56.126Z,1017.53
2016-03-14T10:30:56.145Z,1017.59
2016-03-14T10:31:56.162Z,1017.59
2016-03-14T10:32:56.165Z,1017.57
2016-03-14T10:33:56.184Z,1017.54
2016-03-14T10:34:56.203Z,1017.55
2016-03-14T10:35:56.220Z,1017.48
2016-03-14T10:36:56.222Z,1017.43
2016-03-14T10:37:56.241Z,1017.42
2016-03-14T10:38:56.259Z,1017.49
2016-03-14T10:39:56.262Z,1017.41
2016-03-14T10:40:56.280Z,1017.41
2016-03-14T10:41:56.299Z,1017.33
2016-03-14T10:42:56.317Z,1017.37
2016-03-14T10:43:56.320Z,1017.37
2016-03-14T10:44:56.338Z,1017.4
2016-03-14T10:45:56.357Z,1017.42
2016-03-14T10:46:56.375Z,1017.36
2016-03-14T10:47:56.393Z,1017.36
2016-03-14T10:48:56.396Z,1017.3
2016-03-14T10:49:56.430Z,1017.34
2016-03-14T10:50:56.432Z,1017.25
2016-03-14T10:51:56.435Z,1017.25
2016-03-14T10:52:56.453Z,1017.23
2016-03-14T10:53:56.471Z,1017.21
2016-03-14T10:54:56.490Z,1017.21
2016-03-14T10:55:56.508Z,1017.16
2016-03-14T10:56:56.527Z,1017.21
2016-03-14T10:57:56.529Z,1017.17
2016-03-14T10:58:56.548Z,1017.19
2016-03-14T10:59:56.550Z,1017.15
2016-03-14T11:00:56.569Z,1017.12
2016-03-14T11:01:56.588Z,1017.08
2016-03-14T11:02:56.606Z,1017.05
2016-03-14T11:03:56.624Z,1017.06
2016-03-14T11:04:56.627Z,1016.99
2016-03-14T11:05:56.646Z,1016.95
2016-03-14T11:06:56.664Z,1016.96
2016-03-14T11:07:56.682Z,1016.96
2016-03-14T11:08:56.685Z,1016.9
2016-03-14T11:09:56.703Z,1016.92
2016-03-14T11:10:56.721Z,1016.91
2016-03-14T11:11:56.739Z,1016.9
2016-03-14T11:12:56.742Z,1016.91
2016-03-14T11:13:56.761Z,1016.88
2016-03-14T11:14:56.779Z,1016.87
2016-03-14T11:15:56.814Z,1016.86
2016-03-14T11:16:56.816Z,1016.82
2016-03-14T11:17:56.819Z,1016.82
2016-03-14T11:18:56.836Z,1016.82
2016-03-14T11:19:56.855Z,1016.83
2016-03-14T11:20:56.873Z,1016.89
2016-03-14T11:21:56.895Z,1016.91
2016-03-14T11:22:56.897Z,1016.86
2016-03-14T11:23:56.915Z,1016.93
2016-03-14T11:24:56.933Z,1016.83
2016-03-14T11:25:56.952Z,1016.87
2016-03-14T11:26:56.955Z,1016.79
2016-03-14T11:27:56.973Z,1016.74
2016-03-14T11:28:56.991Z,1016.77
2016-03-14T11:29:57.010Z,1016.72
2016-03-14T11:30:57.027Z,1016.7
2016-03-14T11:31:57.031Z,1016.67
2016-03-14T11:32:57.049Z,1016.68
2016-03-14T11:33:57.068Z,1016.63
2016-03-14T11:34:57.086Z,1016.62
2016-03-14T11:35:57.104Z,1016.59
2016-03-14T11:36:57.123Z,1016.57
2016-03-14T11:37:57.125Z,1016.55
2016-03-14T11:38:57.143Z,1016.6
2016-03-14T11:39:57.162Z,1016.59
2016-03-14T11:40:57.179Z,1016.49
2016-03-14T11:41:57.183Z,1016.5
2016-03-14T11:42:57.201Z,1016.49
2016-03-14T11:43:57.234Z,1016.53
2016-03-14T11:44:57.237Z,1016.51
2016-03-14T11:45:57.256Z,1016.52
2016-03-14T11:46:57.259Z,1016.5
2016-03-14T11:47:57.277Z,1016.51
2016-03-14T11:48:57.295Z,1016.45
2016-03-14T11:49:57.314Z,1016.44
2016-03-14T11:50:57.332Z,1016.39
2016-03-14T11:51:57.334Z,1016.42
2016-03-14T11:53:09.416Z,1016.39
2016-03-14T11:53:57.371Z,1016.33
2016-03-14T11:54:57.382Z,1016.31
2016-03-14T11:55:57.392Z,1016.31
2016-03-14T11:56:57.384Z,1016.3
2016-03-14T11:57:57.393Z,1016.23
2016-03-14T11:58:57.407Z,1016.25
2016-03-14T11:59:57.404Z,1016.25
2016-03-14T12:00:57.466Z,1016.23
2016-03-14T12:01:57.433Z,1016.21
2016-03-14T12:02:57.448Z,1016.12
2016-03-14T12:03:57.463Z,1016.23
2016-03-14T12:04:57.464Z,1016.21
2016-03-14T12:05:57.496Z,1016.19
2016-03-14T12:06:57.513Z,1016.2
2016-03-14T12:07:57.515Z,1016.15
2016-03-14T12:08:57.532Z,1016.15